Fraser, New York
Current Conditions -  °F | °C
As of 6:55 PM on Sunday 23 Nov 2014 (Local Time) from KMSV Reporting Station
Clear Clear  
Wind Chill: 39°   Ceiling: Unl
Heat Index: 43°   Visibility: 10mi
Dew Point: 27°   Wind: 6mph
Humidity: 53%   Direction: 110°ESE
Pressure: 30.07"   Gusts: NA
Location:  42.3065°N, 74.9298°W
Report Text: KMSV 232355Z AUTO 11005KT 10SM CLR 06/M03 A3007 RMK AO1 10120 20050 401200010 57010
Loading
Personal Weather Stations






























Interactive Weather Map New forecast layout! Learn more

10-Day Weather Forecast

Advertisements
Track Severe Weather on mobile